createdAt,value
2019-06-26T00:01:51.032Z,7.03
2019-06-26T00:04:20.880Z,6.75
2019-06-26T00:06:50.678Z,6.40
2019-06-26T00:09:20.477Z,7.42
2019-06-26T00:11:52.062Z,6.53
2019-06-26T00:14:21.853Z,7.28
2019-06-26T00:16:51.665Z,7.12
2019-06-26T00:19:21.545Z,8.40
2019-06-26T00:21:51.357Z,7.53
2019-06-26T00:24:21.233Z,7.05
2019-06-26T00:26:51.956Z,6.85
2019-06-26T00:29:21.769Z,7.53
2019-06-26T00:31:51.560Z,7.15
2019-06-26T00:34:21.377Z,7.60
2019-06-26T00:36:51.167Z,6.97
2019-06-26T00:39:20.980Z,7.47
2019-06-26T00:41:50.765Z,7.10
2019-06-26T00:44:20.587Z,6.37
2019-06-26T00:46:50.386Z,6.72
2019-06-26T00:49:20.749Z,7.10
2019-06-26T00:51:50.528Z,7.70
2019-06-26T00:54:20.465Z,7.45
2019-06-26T00:56:50.260Z,7.00
2019-06-26T00:59:20.089Z,7.70
2019-06-26T01:01:49.954Z,7.67
2019-06-26T01:04:21.465Z,8.05
2019-06-26T01:06:51.265Z,7.12
2019-06-26T01:09:21.217Z,7.83
2019-06-26T01:11:51.040Z,8.65
2019-06-26T01:14:20.843Z,7.37
2019-06-26T01:16:50.716Z,6.85
2019-06-26T01:19:20.589Z,6.60
2019-06-26T01:21:50.394Z,7.60
2019-06-26T01:24:20.194Z,7.40
2019-06-26T01:26:50.074Z,7.47
2019-06-26T01:29:19.867Z,6.83
2019-06-26T01:31:49.685Z,6.65
2019-06-26T01:34:19.491Z,7.08
2019-06-26T01:36:49.309Z,7.65
2019-06-26T01:39:19.181Z,7.22
2019-06-26T01:41:49.062Z,7.90
2019-06-26T01:44:18.873Z,7.65
2019-06-26T01:46:49.745Z,7.62
2019-06-26T01:49:19.548Z,7.67
2019-06-26T01:51:49.725Z,7.70
2019-06-26T01:54:19.595Z,7.97
2019-06-26T01:56:49.478Z,7.95
2019-06-26T01:59:19.382Z,7.12
2019-06-26T02:01:49.176Z,7.92
2019-06-26T02:04:19.049Z,7.12
2019-06-26T02:06:48.937Z,7.53
2019-06-26T02:09:18.792Z,8.28
2019-06-26T02:11:48.716Z,7.08
2019-06-26T02:14:30.564Z,7.47
2019-06-26T02:16:49.944Z,7.33
2019-06-26T02:19:20.819Z,7.37
2019-06-26T02:21:51.580Z,7.05
2019-06-26T02:24:21.389Z,7.83
2019-06-26T02:26:51.201Z,7.55
2019-06-26T02:29:21.015Z,7.85
2019-06-26T02:31:50.812Z,7.80
2019-06-26T02:34:20.699Z,7.55
2019-06-26T02:36:50.506Z,8.53
2019-06-26T02:39:20.444Z,6.67
2019-06-26T02:41:50.274Z,7.37
2019-06-26T02:44:20.071Z,9.05
2019-06-26T02:46:49.888Z,8.43
2019-06-26T02:49:19.685Z,9.75
2019-06-26T02:51:49.831Z,9.28
2019-06-26T02:54:19.705Z,9.18
2019-06-26T02:56:49.540Z,9.60
2019-06-26T02:59:19.346Z,7.92
2019-06-26T03:01:49.179Z,8.10
2019-06-26T03:04:19.012Z,8.00
2019-06-26T03:06:48.856Z,8.73
2019-06-26T03:09:18.675Z,9.63
2019-06-26T03:11:48.475Z,9.95
2019-06-26T03:14:18.294Z,8.65
2019-06-26T03:16:48.110Z,8.20
2019-06-26T03:19:18.230Z,8.83
2019-06-26T03:21:48.038Z,9.23
2019-06-26T03:24:17.848Z,9.48
2019-06-26T03:26:47.662Z,8.73
2019-06-26T03:29:17.543Z,9.90
2019-06-26T03:31:47.789Z,9.05
2019-06-26T03:34:17.673Z,10.03
2019-06-26T03:36:47.489Z,9.60
2019-06-26T03:39:17.297Z,9.85
2019-06-26T03:41:47.111Z,9.55
2019-06-26T03:44:16.920Z,9.90
2019-06-26T03:46:46.799Z,10.45
2019-06-26T03:49:16.601Z,8.90
2019-06-26T03:51:46.449Z,10.08
2019-06-26T03:54:16.255Z,8.98
2019-06-26T03:56:46.059Z,9.05
2019-06-26T03:59:15.865Z,8.83
2019-06-26T04:01:45.669Z,9.78
2019-06-26T04:04:15.469Z,9.88
2019-06-26T04:06:45.281Z,10.15
2019-06-26T04:09:15.089Z,9.55
2019-06-26T04:11:44.887Z,8.75
2019-06-26T04:14:14.747Z,10.05
2019-06-26T04:16:44.812Z,10.03
2019-06-26T04:19:14.658Z,10.38
2019-06-26T04:21:44.507Z,8.93
2019-06-26T04:24:14.308Z,10.48
2019-06-26T04:26:44.182Z,9.10
2019-06-26T04:29:13.981Z,9.68
2019-06-26T04:31:43.781Z,8.48
2019-06-26T04:34:13.587Z,7.65
2019-06-26T04:36:43.524Z,7.75
2019-06-26T04:39:13.322Z,9.03
2019-06-26T04:41:43.129Z,8.48
2019-06-26T04:44:13.274Z,7.78
2019-06-26T04:46:43.368Z,8.75
2019-06-26T04:49:13.249Z,8.50
2019-06-26T04:51:43.108Z,8.30
2019-06-26T04:54:13.342Z,9.55
2019-06-26T04:56:43.432Z,8.13
2019-06-26T04:59:13.238Z,8.30
2019-06-26T05:01:43.124Z,8.63
2019-06-26T05:04:13.302Z,9.20
2019-06-26T05:06:43.129Z,7.17
2019-06-26T05:09:13.004Z,8.25
2019-06-26T05:11:42.819Z,8.38
2019-06-26T05:14:12.740Z,7.60
2019-06-26T05:16:42.617Z,8.35
2019-06-26T05:19:12.424Z,7.70
2019-06-26T05:21:42.225Z,9.85
2019-06-26T05:24:13.101Z,9.13
2019-06-26T05:26:42.904Z,8.13
2019-06-26T05:29:12.709Z,7.80
2019-06-26T05:31:42.524Z,7.28
2019-06-26T05:34:12.337Z,9.38
2019-06-26T05:36:42.137Z,8.48
2019-06-26T05:39:11.936Z,8.40
2019-06-26T05:41:41.800Z,8.63
2019-06-26T05:44:11.601Z,7.65
2019-06-26T05:46:41.411Z,9.35
2019-06-26T05:49:11.289Z,10.20
2019-06-26T05:51:41.102Z,10.90
2019-06-26T05:54:10.920Z,10.82
2019-06-26T05:56:40.911Z,11.55
2019-06-26T05:59:10.780Z,11.73
2019-06-26T06:01:40.600Z,10.65
2019-06-26T06:04:10.738Z,10.43
2019-06-26T06:06:42.183Z,10.93
2019-06-26T06:09:12.149Z,11.05
2019-06-26T06:11:41.954Z,10.85
2019-06-26T06:14:11.774Z,11.45
2019-06-26T06:16:47.215Z,12.28
2019-06-26T06:19:13.337Z,10.85
2019-06-26T06:21:43.117Z,11.90
2019-06-26T06:24:12.926Z,11.50
2019-06-26T06:26:42.745Z,11.93
2019-06-26T06:29:12.544Z,10.63
2019-06-26T06:31:42.392Z,12.05
2019-06-26T06:34:12.268Z,10.55
2019-06-26T06:36:43.155Z,11.45
2019-06-26T06:39:12.957Z,10.68
2019-06-26T06:41:43.555Z,10.20
2019-06-26T06:44:13.463Z,10.88
2019-06-26T06:46:43.267Z,10.90
2019-06-26T06:49:13.080Z,9.75
2019-06-26T06:51:42.878Z,9.25
2019-06-26T06:54:12.687Z,8.55
2019-06-26T06:56:42.486Z,7.10
2019-06-26T06:59:12.355Z,7.47
2019-06-26T07:01:42.151Z,6.47
2019-06-26T07:04:11.959Z,6.42
2019-06-26T07:06:41.773Z,6.25
2019-06-26T07:09:11.589Z,6.75
2019-06-26T07:11:41.397Z,6.78
2019-06-26T07:14:11.534Z,7.15
2019-06-26T07:16:41.363Z,6.90
2019-06-26T07:19:11.120Z,6.85
2019-06-26T07:21:40.921Z,6.50
2019-06-26T07:24:10.726Z,7.28
2019-06-26T07:26:40.545Z,6.80
2019-06-26T07:29:10.338Z,6.75
2019-06-26T07:31:40.146Z,7.17
2019-06-26T07:34:09.938Z,9.18
2019-06-26T07:36:39.757Z,7.05
2019-06-26T07:39:09.679Z,7.55
2019-06-26T07:41:39.458Z,6.85
2019-06-26T07:44:09.246Z,7.75
2019-06-26T07:46:39.037Z,7.50
2019-06-26T07:49:08.833Z,8.35
2019-06-26T07:51:38.641Z,8.03
2019-06-26T07:54:09.522Z,7.78
2019-06-26T07:56:39.305Z,7.90
2019-06-26T07:59:09.198Z,9.60
2019-06-26T08:01:39.354Z,7.33
2019-06-26T08:04:09.155Z,8.88
2019-06-26T08:06:38.978Z,8.53
2019-06-26T08:09:08.796Z,7.65
2019-06-26T08:11:38.596Z,7.58
2019-06-26T08:14:08.774Z,7.75
2019-06-26T08:16:38.592Z,8.43
2019-06-26T08:19:08.379Z,9.93
2019-06-26T08:21:38.189Z,8.33
2019-06-26T08:24:08.004Z,8.38
2019-06-26T08:26:38.155Z,9.18
2019-06-26T08:29:07.951Z,7.78
2019-06-26T08:31:38.046Z,8.73
2019-06-26T08:34:07.849Z,7.75
2019-06-26T08:36:37.644Z,8.38
2019-06-26T08:39:07.536Z,8.63
2019-06-26T08:41:37.324Z,8.10
2019-06-26T08:44:07.119Z,8.33
2019-06-26T08:46:36.926Z,8.63
2019-06-26T08:49:24.053Z,8.75
2019-06-26T08:51:38.217Z,7.92
2019-06-26T08:54:08.022Z,7.85
2019-06-26T08:56:37.900Z,8.80
2019-06-26T08:59:09.128Z,7.65
2019-06-26T09:01:38.904Z,9.03
2019-06-26T09:04:08.708Z,7.92
2019-06-26T09:06:38.833Z,7.55
2019-06-26T09:09:09.061Z,8.65
2019-06-26T09:11:39.423Z,8.53
2019-06-26T09:14:09.241Z,8.65
2019-06-26T09:16:39.045Z,8.10
2019-06-26T09:19:08.844Z,8.13
2019-06-26T09:21:38.652Z,8.65
2019-06-26T09:24:08.453Z,7.72
2019-06-26T09:26:38.259Z,8.30
2019-06-26T09:29:08.067Z,7.35
2019-06-26T09:31:37.857Z,7.90
2019-06-26T09:34:07.710Z,8.08
2019-06-26T09:36:37.517Z,7.85
2019-06-26T09:39:08.484Z,7.47
2019-06-26T09:41:38.292Z,9.43
2019-06-26T09:44:09.165Z,8.05
2019-06-26T09:46:38.976Z,7.25
2019-06-26T09:49:08.767Z,7.37
2019-06-26T09:51:38.953Z,8.63
2019-06-26T09:54:08.760Z,10.13
2019-06-26T09:56:38.564Z,7.92
2019-06-26T09:59:08.359Z,7.87
2019-06-26T10:01:38.510Z,7.80
2019-06-26T10:04:08.380Z,8.60
2019-06-26T10:06:38.175Z,8.95
2019-06-26T10:09:08.660Z,8.10
2019-06-26T10:11:38.452Z,8.23
2019-06-26T10:14:08.267Z,8.98
2019-06-26T10:16:38.075Z,8.05
2019-06-26T10:19:10.584Z,9.13
2019-06-26T10:21:39.300Z,9.05
2019-06-26T10:24:09.116Z,7.47
2019-06-26T10:26:39.304Z,9.83
2019-06-26T10:29:09.099Z,7.78
2019-06-26T10:31:38.905Z,9.15
2019-06-26T10:34:10.179Z,7.62
2019-06-26T10:36:40.228Z,8.25
2019-06-26T10:39:11.084Z,7.08
2019-06-26T10:41:40.893Z,7.35
2019-06-26T10:44:10.687Z,7.62
2019-06-26T10:46:40.508Z,8.83
2019-06-26T10:49:25.918Z,7.67
2019-06-26T10:51:43.359Z,7.45
2019-06-26T10:54:13.221Z,8.28
2019-06-26T10:56:43.021Z,8.63
2019-06-26T10:59:12.824Z,9.23
2019-06-26T11:01:42.623Z,9.20
2019-06-26T11:04:12.415Z,7.62
2019-06-26T11:06:42.244Z,9.05
2019-06-26T11:09:14.017Z,9.13
2019-06-26T11:11:43.826Z,8.45
2019-06-26T11:14:13.839Z,8.10
2019-06-26T11:16:44.729Z,9.38
2019-06-26T11:19:14.520Z,10.25
2019-06-26T11:21:44.345Z,8.85
2019-06-26T11:24:14.172Z,8.13
2019-06-26T11:26:45.598Z,8.68
2019-06-26T11:29:15.401Z,9.08
2019-06-26T11:31:45.210Z,8.73
2019-06-26T11:34:15.039Z,9.48
2019-06-26T11:36:53.506Z,8.68
2019-06-26T11:39:16.566Z,9.88
2019-06-26T11:41:46.366Z,8.23
2019-06-26T11:44:17.245Z,7.97
2019-06-26T11:46:47.048Z,8.83
2019-06-26T11:49:16.853Z,9.03
2019-06-26T11:51:46.657Z,10.98
2019-06-26T11:54:16.475Z,9.98
2019-06-26T11:56:46.275Z,7.95
2019-06-26T11:59:16.148Z,9.88
2019-06-26T12:01:45.946Z,8.03
2019-06-26T12:04:16.134Z,10.20
2019-06-26T12:06:46.363Z,9.48
2019-06-26T12:09:16.379Z,8.98
2019-06-26T12:11:46.177Z,9.40
2019-06-26T12:14:15.972Z,8.58
2019-06-26T12:16:45.789Z,8.60
2019-06-26T12:19:18.935Z,9.00
2019-06-26T12:21:47.135Z,9.78
2019-06-26T12:24:16.931Z,9.08
2019-06-26T12:26:46.751Z,9.18
2019-06-26T12:29:16.553Z,9.25
2019-06-26T12:31:46.731Z,9.50
2019-06-26T12:34:16.542Z,9.15
2019-06-26T12:36:46.328Z,8.80
2019-06-26T12:39:16.143Z,9.18
2019-06-26T12:41:45.931Z,9.33
2019-06-26T12:44:15.731Z,8.88
2019-06-26T12:46:45.533Z,9.55
2019-06-26T12:49:15.332Z,9.10
2019-06-26T12:51:45.142Z,9.68
2019-06-26T12:54:14.944Z,9.93
2019-06-26T12:56:44.744Z,9.73
2019-06-26T12:59:14.621Z,9.08
2019-06-26T13:01:44.434Z,9.18
2019-06-26T13:04:14.522Z,8.78
2019-06-26T13:06:46.419Z,8.70
2019-06-26T13:09:16.211Z,9.10
2019-06-26T13:11:46.095Z,9.43
2019-06-26T13:14:16.210Z,9.23
2019-06-26T13:16:46.019Z,8.85
2019-06-26T13:19:16.167Z,9.48
2019-06-26T13:21:46.022Z,10.30
2019-06-26T13:24:16.183Z,9.48
2019-06-26T13:26:45.984Z,9.75
2019-06-26T13:29:15.781Z,8.85
2019-06-26T13:31:45.929Z,8.73
2019-06-26T13:34:15.731Z,9.35
2019-06-26T13:36:45.535Z,9.80
2019-06-26T13:39:15.331Z,9.23
2019-06-26T13:41:45.149Z,9.70
2019-06-26T13:44:14.954Z,10.28
2019-06-26T13:46:44.767Z,9.90
2019-06-26T13:49:16.614Z,9.73
2019-06-26T13:51:46.311Z,8.68
2019-06-26T13:54:16.099Z,9.68
2019-06-26T13:56:47.872Z,10.18
2019-06-26T13:59:17.337Z,9.40
2019-06-26T14:01:47.148Z,10.13
2019-06-26T14:04:16.992Z,10.23
2019-06-26T14:06:46.816Z,8.85
2019-06-26T14:09:16.609Z,9.20
2019-06-26T14:11:46.409Z,9.03
2019-06-26T14:14:17.940Z,8.53
2019-06-26T14:16:47.767Z,9.75
2019-06-26T14:19:17.618Z,8.75
2019-06-26T14:21:47.365Z,8.88
2019-06-26T14:24:17.188Z,8.85
2019-06-26T14:26:46.965Z,10.13
2019-06-26T14:29:20.861Z,9.08
2019-06-26T14:31:48.237Z,9.68
2019-06-26T14:34:18.041Z,9.90
2019-06-26T14:36:47.857Z,8.58
2019-06-26T14:39:17.892Z,9.40
2019-06-26T14:41:47.712Z,9.68
2019-06-26T14:44:17.513Z,9.35
2019-06-26T14:46:47.333Z,10.32
2019-06-26T14:49:17.131Z,9.95
2019-06-26T14:51:47.898Z,10.08
2019-06-26T14:54:17.959Z,9.88
2019-06-26T14:56:47.756Z,10.38
2019-06-26T14:59:17.872Z,10.78
2019-06-26T15:01:47.669Z,10.35
2019-06-26T15:04:17.492Z,9.88
2019-06-26T15:06:47.291Z,10.90
2019-06-26T15:09:17.104Z,10.15
2019-06-26T15:11:46.934Z,9.83
2019-06-26T15:14:16.724Z,10.30
2019-06-26T15:16:46.554Z,10.15
2019-06-26T15:19:16.410Z,10.18
2019-06-26T15:21:57.874Z,10.13
2019-06-26T15:24:17.649Z,10.88
2019-06-26T15:26:47.462Z,11.40
2019-06-26T15:29:17.326Z,10.85
2019-06-26T15:31:47.084Z,9.93
2019-06-26T15:34:16.884Z,10.10
2019-06-26T15:36:46.705Z,10.40
2019-06-26T15:39:16.527Z,9.93
2019-06-26T15:41:46.331Z,11.38
2019-06-26T15:44:16.140Z,10.50
2019-06-26T15:46:45.959Z,9.65
2019-06-26T15:49:15.769Z,10.50
2019-06-26T15:51:45.662Z,11.03
2019-06-26T15:54:15.798Z,9.85
2019-06-26T15:56:45.624Z,10.63
2019-06-26T15:59:15.449Z,11.33
2019-06-26T16:01:45.249Z,10.55
2019-06-26T16:04:15.068Z,10.68
2019-06-26T16:06:44.886Z,11.85
2019-06-26T16:09:14.732Z,9.83
2019-06-26T16:11:44.537Z,10.78
2019-06-26T16:14:14.357Z,10.00
2019-06-26T16:16:45.836Z,10.65
2019-06-26T16:19:17.289Z,10.60
2019-06-26T16:21:48.174Z,10.78
2019-06-26T16:24:17.995Z,11.20
2019-06-26T16:26:47.969Z,10.80
2019-06-26T16:29:17.846Z,9.73
2019-06-26T16:31:47.665Z,9.28
2019-06-26T16:34:17.535Z,9.30
2019-06-26T16:36:47.354Z,11.30
2019-06-26T16:39:17.173Z,10.10
2019-06-26T16:41:49.133Z,10.20
2019-06-26T16:44:18.421Z,10.25
2019-06-26T16:46:48.621Z,9.88
2019-06-26T16:49:18.421Z,10.65
2019-06-26T16:51:48.245Z,10.38
2019-06-26T16:54:18.122Z,9.90
2019-06-26T16:56:47.960Z,10.93
2019-06-26T16:59:17.771Z,9.85
2019-06-26T17:01:47.657Z,10.60
2019-06-26T17:04:17.468Z,11.20
2019-06-26T17:06:48.366Z,10.55
2019-06-26T17:09:18.197Z,10.58
2019-06-26T17:11:48.395Z,10.65
2019-06-26T17:14:18.219Z,9.53
2019-06-26T17:16:48.066Z,9.85
2019-06-26T17:19:17.858Z,10.25
2019-06-26T17:21:47.677Z,10.70
2019-06-26T17:24:17.481Z,9.45
2019-06-26T17:26:47.284Z,10.43
2019-06-26T17:29:17.530Z,9.55
2019-06-26T17:31:47.323Z,9.80
2019-06-26T17:34:17.197Z,9.55
2019-06-26T17:36:49.084Z,9.90
2019-06-26T17:39:18.884Z,10.43
2019-06-26T17:41:48.736Z,10.38
2019-06-26T17:44:18.536Z,10.30
2019-06-26T17:46:48.350Z,9.85
2019-06-26T17:49:18.169Z,10.38
2019-06-26T17:51:47.998Z,10.05
2019-06-26T17:54:17.824Z,10.15
2019-06-26T17:56:47.990Z,10.25
2019-06-26T17:59:17.810Z,10.18
2019-06-26T18:01:47.612Z,9.50
2019-06-26T18:04:17.712Z,10.85
2019-06-26T18:06:47.527Z,11.25
2019-06-26T18:09:17.344Z,10.30
2019-06-26T18:11:47.488Z,11.40
2019-06-26T18:14:17.301Z,9.78
2019-06-26T18:16:47.100Z,9.73
2019-06-26T18:19:16.920Z,10.23
2019-06-26T18:21:46.735Z,12.00
2019-06-26T18:24:16.574Z,9.90
2019-06-26T18:26:46.372Z,9.58
2019-06-26T18:29:16.193Z,10.38
2019-06-26T18:31:46.061Z,10.05
2019-06-26T18:34:15.979Z,10.25
2019-06-26T18:36:45.790Z,10.28
2019-06-26T18:39:15.601Z,10.25
2019-06-26T18:41:45.480Z,10.60
2019-06-26T18:44:15.434Z,10.82
2019-06-26T18:46:45.580Z,10.32
2019-06-26T18:49:15.389Z,9.53
2019-06-26T18:51:45.210Z,10.35
2019-06-26T18:54:16.674Z,10.75
2019-06-26T18:56:46.874Z,10.70
2019-06-26T18:59:16.684Z,10.43
2019-06-26T19:01:46.502Z,11.70
2019-06-26T19:04:16.319Z,10.78
2019-06-26T19:06:46.211Z,11.05
2019-06-26T19:09:16.018Z,11.10
2019-06-26T19:11:47.704Z,10.48
2019-06-26T19:14:17.818Z,10.53
2019-06-26T19:16:47.652Z,10.85
2019-06-26T19:19:17.533Z,11.12
2019-06-26T19:21:47.349Z,10.53
2019-06-26T19:24:17.169Z,10.70
2019-06-26T19:26:46.970Z,9.70
2019-06-26T19:29:16.767Z,9.88
2019-06-26T19:31:46.923Z,11.18
2019-06-26T19:34:16.763Z,10.55
2019-06-26T19:36:50.388Z,10.40
2019-06-26T19:39:20.822Z,11.05
2019-06-26T19:41:49.521Z,10.70
2019-06-26T19:44:19.415Z,11.03
2019-06-26T19:46:49.298Z,10.55
2019-06-26T19:49:19.205Z,11.70
2019-06-26T19:51:49.092Z,11.33
2019-06-26T19:54:27.206Z,11.68
2019-06-26T19:56:50.446Z,11.63
2019-06-26T19:59:20.326Z,11.08
2019-06-26T20:01:51.437Z,10.48
2019-06-26T20:04:21.456Z,11.63
2019-06-26T20:06:51.272Z,11.12
2019-06-26T20:09:21.118Z,10.72
2019-06-26T20:11:50.925Z,10.95
2019-06-26T20:14:20.759Z,11.78
2019-06-26T20:16:50.571Z,11.73
2019-06-26T20:19:20.402Z,11.22
2019-06-26T20:21:50.542Z,12.33
2019-06-26T20:24:20.773Z,10.25
2019-06-26T20:26:50.587Z,11.45
2019-06-26T20:29:20.574Z,11.00
2019-06-26T20:31:50.387Z,10.93
2019-06-26T20:34:20.199Z,10.53
2019-06-26T20:36:50.084Z,11.28
2019-06-26T20:39:20.265Z,10.90
2019-06-26T20:41:50.249Z,10.72
2019-06-26T20:44:20.061Z,10.65
2019-06-26T20:46:49.873Z,11.73
2019-06-26T20:49:19.752Z,12.10
2019-06-26T20:51:49.600Z,11.05
2019-06-26T20:54:19.517Z,10.95
2019-06-26T20:56:49.467Z,11.22
2019-06-26T20:59:19.584Z,11.28
2019-06-26T21:01:49.388Z,12.55
2019-06-26T21:04:19.740Z,11.68
2019-06-26T21:06:49.552Z,10.80
2019-06-26T21:09:19.374Z,10.50
2019-06-26T21:11:49.198Z,12.05
2019-06-26T21:14:19.064Z,10.63
2019-06-26T21:16:48.946Z,10.70
2019-06-26T21:19:18.765Z,11.03
2019-06-26T21:21:48.617Z,12.00
2019-06-26T21:24:18.481Z,11.85
2019-06-26T21:26:48.316Z,12.63
2019-06-26T21:29:18.165Z,11.40
2019-06-26T21:31:48.394Z,10.82
2019-06-26T21:34:18.191Z,11.12
2019-06-26T21:36:47.997Z,11.15
2019-06-26T21:39:17.821Z,12.03
2019-06-26T21:41:47.647Z,10.63
2019-06-26T21:44:17.463Z,11.20
2019-06-26T21:46:47.274Z,10.75
2019-06-26T21:49:17.469Z,11.95
2019-06-26T21:51:48.263Z,11.50
2019-06-26T21:54:18.070Z,10.93
2019-06-26T21:57:09.167Z,10.38
2019-06-26T21:59:55.426Z,10.98
2019-06-26T22:02:43.347Z,10.93
2019-06-26T22:05:15.224Z,11.38
2019-06-26T22:07:46.665Z,11.55
2019-06-26T22:10:18.080Z,11.68
2019-06-26T22:12:47.950Z,11.12
2019-06-26T22:15:19.119Z,11.35
2019-06-26T22:17:49.012Z,11.08
2019-06-26T22:20:18.945Z,11.63
2019-06-26T22:22:48.821Z,12.18
2019-06-26T22:25:18.658Z,10.18
2019-06-26T22:27:48.529Z,10.70
2019-06-26T22:30:18.358Z,12.28
2019-06-26T22:32:48.234Z,9.83
2019-06-26T22:35:18.188Z,12.20
2019-06-26T22:37:47.993Z,11.45
2019-06-26T22:40:18.138Z,11.10
2019-06-26T22:42:47.957Z,11.63
2019-06-26T22:45:18.847Z,11.50
2019-06-26T22:47:48.657Z,10.60
2019-06-26T22:50:18.472Z,10.95
2019-06-26T22:52:48.641Z,11.12
2019-06-26T22:55:18.461Z,12.13
2019-06-26T22:57:48.277Z,10.23
2019-06-26T23:00:18.698Z,10.32
2019-06-26T23:02:48.780Z,10.20
2019-06-26T23:05:18.890Z,10.72
2019-06-26T23:07:48.986Z,10.30
2019-06-26T23:10:19.236Z,9.90
2019-06-26T23:12:50.111Z,10.40
2019-06-26T23:15:19.924Z,10.53
2019-06-26T23:17:49.746Z,10.65
2019-06-26T23:20:19.566Z,10.20
2019-06-26T23:22:49.449Z,10.43
2019-06-26T23:25:19.277Z,10.30
2019-06-26T23:27:49.093Z,9.75
2019-06-26T23:30:19.345Z,9.33
2019-06-26T23:32:50.228Z,9.35
2019-06-26T23:35:20.045Z,9.33
2019-06-26T23:37:49.847Z,9.35
2019-06-26T23:40:19.670Z,8.35
2019-06-26T23:42:49.477Z,9.35
2019-06-26T23:45:20.364Z,9.08
2019-06-26T23:47:50.166Z,9.10
2019-06-26T23:50:19.981Z,9.08
2019-06-26T23:52:50.084Z,8.38
2019-06-26T23:55:19.885Z,9.33
2019-06-26T23:57:58.856Z,9.68
